Martinsburg, MO (65264)

3:46 AM CST on January 23, 2017 (GMT -0600)
ALSAT Wireless | | Change Station

Elev 810 ft 38.99 °N, 91.55 °W | Updated 3 seconds ago

Overcast
Overcast
38.2 °F
Feels Like 32 °F
N
8.0
Wind Variable Wind from NW
Gusts 11.0 mph

Today
High -- | Low -- °F
--% Chance of Precip.
Yesterday
High -- | Low -- °F
Precip. -- in
Pressure 29.82 in
Visibility 9.0 miles
Clouds Mostly Cloudy 1100 ft
Overcast 2500 ft
Windchill 32 °F
Dew Point 36 °F
Humidity 93%
Rainfall 0.00 in
Snow Depth Not available.
7:19 AM 5:17 PM
Waning Crescent, 19% visible
SPECI KCOU 230916Z AUTO 33010KT 9SM BKN011 OVC025 04/02 A2982 RMK AO2 T00390022
Pressure 29.82 in
Visibility 9.0 miles
Clouds Mostly Cloudy 1100 ft
Overcast 2500 ft
Windchill 32 °F
Dew Point 36 °F
Humidity 93%
Rainfall 0.00 in
Snow Depth Not available.
7:19 AM 5:17 PM
Waning Crescent, 19% visible
SPECI KCOU 230916Z AUTO 33010KT 9SM BKN011 OVC025 04/02 A2982 RMK AO2 T00390022

Get Your Daily Forecast Email!

Thanks for signing up!

Be on the lookout for a verification email in your inbox.

You'll start receiving the daily forecast at 8 AM.

×

10-Day Weather Forecast

Almanac

Astronomy

Jan. 23, 2017 Rise Set
Actual Time
Civil Twilight
Nautical Twilight
Astronomical Twilight
Moon
Length of Visible Light
Length of Day
Tomorrow will be .
, % of the Moon is Illuminated

Today's Extremes

State Highs State Lows

Community

WunderPhotos

Upload Photos

1,962,540 photos uploaded!

WunderBlog® & News

Nearby

Air Quality

  Air Quality AQ Index Pollutant
Not available.

Snow Depth

Station Depth Elevation

Earthquake Activity

City Distance Mag. Time & Date
Minimum magnitude displayed is 2.5.

Coastal Water Temperatures

Place Temperature

Stations

Nearby Weather Stations

Station Location Temp. Windchill Dew Point Humidity Wind Precip. Elev Updated Type
                   

Watches & Warnings

There are currently no watches in effect.